createdAt,value
2023-02-03T00:01:40.449Z,8.80
2023-02-03T00:09:48.593Z,9.10
2023-02-03T00:17:54.076Z,9.10
2023-02-03T00:26:09.196Z,9.00
2023-02-03T00:34:15.218Z,9.00
2023-02-03T00:42:23.215Z,8.70
2023-02-03T00:50:28.997Z,8.70
2023-02-03T00:58:37.415Z,9.00
2023-02-03T01:06:44.314Z,9.10
2023-02-03T01:14:52.403Z,9.20
2023-02-03T01:22:57.800Z,8.90
2023-02-03T01:31:15.819Z,9.20
2023-02-03T01:39:21.697Z,9.20
2023-02-03T01:47:34.045Z,9.30
2023-02-03T01:55:43.599Z,9.40
2023-02-03T02:03:55.816Z,9.40
2023-02-03T02:12:01.191Z,9.50
2023-02-03T02:20:31.972Z,9.20
2023-02-03T02:28:59.113Z,9.30
2023-02-03T02:37:16.459Z,9.20
2023-02-03T02:45:29.303Z,9.20
2023-02-03T02:53:41.574Z,9.30
2023-02-03T03:01:48.466Z,9.20
2023-02-03T03:10:01.722Z,9.10
2023-02-03T03:18:12.730Z,9.10
2023-02-03T03:26:28.032Z,9.10
2023-02-03T03:34:34.827Z,9.00
2023-02-03T03:42:48.674Z,9.00
2023-02-03T03:50:59.187Z,9.10
2023-02-03T03:59:09.713Z,8.80
2023-02-03T04:07:16.934Z,8.60
2023-02-03T04:15:25.188Z,8.50
2023-02-03T04:23:30.709Z,8.30
2023-02-03T04:31:39.043Z,8.60
2023-02-03T04:39:44.617Z,8.60
2023-02-03T04:47:55.920Z,8.50
2023-02-03T04:56:01.552Z,8.70
2023-02-03T05:04:09.642Z,8.60
2023-02-03T05:12:15.184Z,8.70
2023-02-03T05:20:23.734Z,8.80
2023-02-03T05:28:29.288Z,8.80
2023-02-03T05:36:37.190Z,8.80
2023-02-03T05:44:42.813Z,8.80
2023-02-03T05:52:50.916Z,8.80
2023-02-03T06:00:56.380Z,8.70
2023-02-03T06:09:04.810Z,8.80
2023-02-03T06:17:11.001Z,8.90
2023-02-03T06:25:19.036Z,9.10
2023-02-03T06:33:24.735Z,9.10
2023-02-03T06:41:33.022Z,9.20
2023-02-03T06:49:38.383Z,9.10
2023-02-03T06:57:50.818Z,9.10
2023-02-03T07:05:56.217Z,9.10
2023-02-03T07:14:04.264Z,9.20
2023-02-03T07:22:09.782Z,9.00
2023-02-03T07:30:18.688Z,9.20
2023-02-03T07:38:25.190Z,9.10
2023-02-03T07:46:33.472Z,9.20
2023-02-03T07:54:38.994Z,9.60
2023-02-03T08:02:47.783Z,10.50
2023-02-03T08:10:53.175Z,10.90
2023-02-03T08:19:01.263Z,11.30
2023-02-03T08:27:06.777Z,11.50
2023-02-03T08:35:14.931Z,12.00
2023-02-03T08:43:20.302Z,12.00
2023-02-03T08:51:28.365Z,12.60
2023-02-03T08:59:36.243Z,15.20
2023-02-03T09:07:46.067Z,16.40
2023-02-03T09:15:51.555Z,16.70
2023-02-03T09:24:03.411Z,16.20
2023-02-03T09:32:11.089Z,18.00
2023-02-03T09:40:26.437Z,18.30
2023-02-03T09:48:37.702Z,17.00
2023-02-03T09:56:52.528Z,22.10
2023-02-03T10:05:03.329Z,24.00
2023-02-03T10:13:22.065Z,21.50
2023-02-03T10:21:39.091Z,21.10
2023-02-03T10:29:47.661Z,19.70
2023-02-03T10:37:56.657Z,18.60
2023-02-03T10:46:04.813Z,17.30
2023-02-03T10:54:32.116Z,16.40
2023-02-03T11:02:40.446Z,15.60
2023-02-03T11:10:46.866Z,15.20
2023-02-03T11:19:00.035Z,14.80
2023-02-03T11:27:08.329Z,14.10
2023-02-03T11:35:24.341Z,14.00
2023-02-03T11:43:30.656Z,13.70
2023-02-03T11:51:49.019Z,13.10
2023-02-03T12:00:15.035Z,12.70
2023-02-03T12:08:40.163Z,11.70
2023-02-03T12:17:23.799Z,11.30
2023-02-03T12:25:40.475Z,11.20
2023-02-03T12:33:51.615Z,11.70
2023-02-03T12:42:04.658Z,11.60
2023-02-03T12:50:17.906Z,11.50
2023-02-03T12:58:34.282Z,11.30
2023-02-03T13:06:47.436Z,10.70
2023-02-03T13:15:02.653Z,10.60
2023-02-03T13:23:11.632Z,10.70
2023-02-03T13:31:33.868Z,10.50
2023-02-03T13:39:58.903Z,10.70
2023-02-03T13:48:14.261Z,10.70
2023-02-03T13:56:24.859Z,10.50
2023-02-03T14:04:57.647Z,10.50
2023-02-03T14:13:04.530Z,10.10
2023-02-03T14:21:20.635Z,9.90
2023-02-03T14:29:32.271Z,9.40
2023-02-03T14:37:40.521Z,9.40
2023-02-03T14:46:08.593Z,9.30
2023-02-03T14:54:31.103Z,9.10
2023-02-03T15:02:37.656Z,9.00
2023-02-03T15:10:47.963Z,8.90
2023-02-03T15:19:09.053Z,8.70
2023-02-03T15:27:27.498Z,9.00
2023-02-03T15:35:36.837Z,8.80
2023-02-03T15:43:48.835Z,8.60
2023-02-03T15:51:58.958Z,8.90
2023-02-03T16:00:14.205Z,8.70
2023-02-03T16:08:43.920Z,8.50
2023-02-03T16:17:06.269Z,8.40
2023-02-03T16:25:21.863Z,8.40
2023-02-03T16:33:47.130Z,8.60
2023-02-03T16:42:04.990Z,8.50
2023-02-03T16:50:39.665Z,8.30
2023-02-03T16:58:52.197Z,8.30
2023-02-03T17:07:00.572Z,8.10
2023-02-03T17:15:13.273Z,8.30
2023-02-03T17:23:22.767Z,8.30
2023-02-03T17:31:28.619Z,8.10
2023-02-03T17:56:23.454Z,8.10
2023-02-03T18:04:31.507Z,8.20
2023-02-03T18:12:39.750Z,8.50
2023-02-03T18:20:48.704Z,8.30
2023-02-03T18:28:58.053Z,7.70
2023-02-03T18:37:04.262Z,7.60
2023-02-03T18:45:13.928Z,8.10
2023-02-03T18:53:19.731Z,8.20
2023-02-03T19:01:29.923Z,8.30
2023-02-03T19:09:35.589Z,8.30
2023-02-03T19:17:43.908Z,8.10
2023-02-03T19:25:55.392Z,8.10
2023-02-03T19:34:03.718Z,7.80
2023-02-03T19:42:09.260Z,7.70
2023-02-03T19:50:17.528Z,7.50
2023-02-03T19:58:23.661Z,7.20
2023-02-03T20:06:31.856Z,7.30
2023-02-03T20:14:37.502Z,7.10
2023-02-03T20:22:45.631Z,7.00
2023-02-03T20:30:54.309Z,6.80
2023-02-03T20:39:02.328Z,6.90
2023-02-03T20:47:11.793Z,7.00
2023-02-03T20:55:22.054Z,6.20
2023-02-03T21:03:55.480Z,6.50
2023-02-03T21:12:03.562Z,6.10
2023-02-03T21:20:24.595Z,6.40
2023-02-03T21:28:35.261Z,5.90
2023-02-03T21:36:41.570Z,5.70
2023-02-03T21:44:49.792Z,5.90
2023-02-03T21:52:55.285Z,6.10
2023-02-03T22:01:06.398Z,6.50
2023-02-03T22:09:28.885Z,6.60
2023-02-03T22:17:56.396Z,6.70
2023-02-03T22:26:03.485Z,7.10
2023-02-03T22:34:12.183Z,7.10
2023-02-03T22:42:17.845Z,7.40
2023-02-03T22:50:35.049Z,6.80
2023-02-03T22:58:41.929Z,6.50
2023-02-03T23:06:49.896Z,6.80
2023-02-03T23:14:55.318Z,7.20
2023-02-03T23:23:03.393Z,7.60
2023-02-03T23:31:09.279Z,7.10
2023-02-03T23:39:17.435Z,7.40
2023-02-03T23:47:23.066Z,7.80
2023-02-03T23:55:31.546Z,7.70
